Time;durP1;ratioP1;P1;durP2;ratioP2;P2;SDS_P1;SDS_P2;PMS_P1;PMS_P2;Temp;Humidity;BMP_temperature;BMP_pressure;BME280_temperature;BME280_humidity;BME280_pressure;Samples;Min_cycle;Max_cycle;Signal;HPM_P1;HPM_P2
2022/06/16 00:00:44;;;;;;;8.75;3.00;;;10.10;99.90;;;;;;5024795;28;20057;-74
2022/06/16 00:03:09;;;;;;;9.95;3.65;;;10.00;99.90;;;;;;5017307;28;20049;-74
2022/06/16 00:05:37;;;;;;;8.43;3.60;;;10.00;99.90;;;;;;5017153;28;20057;-74
2022/06/16 00:08:04;;;;;;;14.18;3.55;;;10.00;99.90;;;;;;5017060;28;20125;-74
2022/06/16 00:10:30;;;;;;;8.85;4.03;;;10.00;99.90;;;;;;5027025;28;20049;-74
2022/06/16 00:12:56;;;;;;;8.80;3.75;;;10.00;99.90;;;;;;5036857;28;20045;-74
2022/06/16 00:15:25;;;;;;;12.30;3.75;;;10.00;99.90;;;;;;5036422;28;20374;-74
2022/06/16 00:17:51;;;;;;;10.75;3.50;;;10.10;99.90;;;;;;5036681;28;20084;-74
2022/06/16 00:20:17;;;;;;;13.25;3.92;;;10.00;99.90;;;;;;5035946;28;20080;-74
2022/06/16 00:22:42;;;;;;;11.05;3.83;;;10.00;99.90;;;;;;5036043;28;20116;-75
2022/06/16 00:25:09;;;;;;;7.47;3.05;;;9.90;99.90;;;;;;5036491;28;20136;-75
2022/06/16 00:27:34;;;;;;;12.75;4.60;;;9.80;99.90;;;;;;5036474;28;20049;-74
2022/06/16 00:30:00;;;;;;;10.55;3.85;;;9.80;99.90;;;;;;5026574;28;20050;-75
2022/06/16 00:32:26;;;;;;;10.75;3.97;;;9.70;99.90;;;;;;5016791;28;20426;-74
2022/06/16 00:34:52;;;;;;;9.52;4.03;;;9.70;99.90;;;;;;5034551;28;20509;-74
2022/06/16 00:37:18;;;;;;;20.40;5.25;;;9.70;99.90;;;;;;5029874;28;20081;-73
2022/06/16 00:39:43;;;;;;;15.35;4.60;;;9.60;99.90;;;;;;5023691;28;20057;-75
2022/06/16 00:42:20;;;;;;;10.93;4.93;;;9.60;99.90;;;;;;5036341;28;20084;-75
2022/06/16 00:44:50;;;;;;;11.50;5.15;;;9.50;99.90;;;;;;5035150;28;20131;-74
2022/06/16 00:47:19;;;;;;;9.00;4.45;;;9.60;99.90;;;;;;5036261;28;20053;-74
2022/06/16 00:49:45;;;;;;;19.98;5.50;;;9.70;99.90;;;;;;5028439;28;20088;-74
2022/06/16 00:52:24;;;;;;;12.52;5.07;;;9.80;99.90;;;;;;5016119;28;20129;-75
2022/06/16 00:54:52;;;;;;;14.27;5.18;;;9.90;99.90;;;;;;5030928;28;20409;-74
2022/06/16 00:57:22;;;;;;;12.13;5.13;;;9.90;99.90;;;;;;5035702;28;20061;-74
2022/06/16 00:59:48;;;;;;;11.23;4.88;;;9.70;99.90;;;;;;5028211;28;20386;-74
2022/06/16 01:02:15;;;;;;;9.98;4.88;;;9.70;99.90;;;;;;5015864;28;20072;-74
2022/06/16 01:04:53;;;;;;;13.00;4.57;;;9.70;99.90;;;;;;5029196;28;20069;-74
2022/06/16 01:07:29;;;;;;;13.00;4.28;;;9.60;99.90;;;;;;5021747;28;20042;-74
2022/06/16 01:09:55;;;;;;;16.40;7.25;;;9.40;99.90;;;;;;5017274;28;20084;-74
2022/06/16 01:15:36;;;;;;;10.98;5.32;;;9.10;99.90;;;;;;5016011;28;20058;-75
2022/06/16 01:18:13;;;;;;;15.38;5.25;;;9.00;99.90;;;;;;5016043;28;20046;-74
2022/06/16 01:21:06;;;;;;;8.15;4.38;;;8.90;99.90;;;;;;5030656;28;20049;-74
2022/06/16 01:23:43;;;;;;;15.48;6.65;;;9.00;99.90;;;;;;5035565;28;20058;-74
2022/06/16 01:26:33;;;;;;;11.00;5.85;;;8.90;99.90;;;;;;5034344;28;20420;-74
2022/06/16 01:29:16;;;;;;;11.02;6.03;;;8.90;99.90;;;;;;5033115;28;20076;-74
2022/06/16 01:32:10;;;;;;;13.38;6.38;;;8.90;99.90;;;;;;5015464;28;20481;-74
2022/06/16 01:34:57;;;;;;;16.92;7.22;;;8.90;99.90;;;;;;5015465;28;20045;-75
2022/06/16 01:37:23;;;;;;;;;;;9.00;99.90;;;;;;5015930;28;20065;-75
2022/06/16 01:40:10;;;;;;;11.33;6.03;;;9.10;99.90;;;;;;5015723;28;20365;-74
2022/06/16 01:43:00;;;;;;;13.60;5.60;;;9.30;99.90;;;;;;5015278;28;20050;-74
2022/06/16 01:45:32;;;;;;;14.05;6.50;;;9.50;99.90;;;;;;5015421;28;20088;-74
2022/06/16 01:47:59;;;;;;;11.95;5.63;;;9.60;99.90;;;;;;5015208;28;20053;-74
2022/06/16 01:50:35;;;;;;;11.15;5.38;;;9.50;99.90;;;;;;5029902;28;20054;-75
2022/06/16 01:53:09;;;;;;;13.52;6.55;;;9.60;99.90;;;;;;5034838;28;20445;-74
2022/06/16 01:55:48;;;;;;;14.20;6.85;;;9.60;99.90;;;;;;5034362;28;20478;-74
2022/06/16 01:58:20;;;;;;;12.73;5.97;;;9.70;99.90;;;;;;5034027;28;20072;-74
2022/06/16 02:00:48;;;;;;;10.27;6.05;;;9.80;99.90;;;;;;5033778;28;20041;-74
2022/06/16 02:03:22;;;;;;;19.73;5.75;;;9.80;99.90;;;;;;5033486;28;20037;-74
2022/06/16 02:05:58;;;;;;;11.63;5.70;;;9.70;99.90;;;;;;5034327;28;20394;-74
2022/06/16 02:08:41;;;;;;;10.48;5.97;;;9.80;99.90;;;;;;5032759;28;20080;-75
2022/06/16 02:11:27;;;;;;;11.10;5.00;;;9.80;99.90;;;;;;5034360;28;20040;-74
2022/06/16 02:14:31;;;;;;;16.40;6.35;;;9.80;99.90;;;;;;5034321;28;20573;-73
2022/06/16 02:16:58;;;;;;;15.50;5.97;;;10.00;99.90;;;;;;5028064;28;20048;-74
2022/06/16 02:19:25;;;;;;;12.23;5.88;;;10.10;99.90;;;;;;5014637;28;20046;-75
2022/06/16 02:21:52;;;;;;;12.88;5.70;;;10.10;99.90;;;;;;5015024;28;20042;-74
2022/06/16 02:24:24;;;;;;;15.38;6.63;;;10.20;99.90;;;;;;5014553;28;20129;-74
2022/06/16 02:26:52;;;;;;;10.73;4.93;;;10.10;99.90;;;;;;5022088;28;20046;-74
2022/06/16 02:29:36;;;;;;;11.85;5.40;;;10.10;99.90;;;;;;5034604;28;20523;-74
2022/06/16 02:32:31;;;;;;;12.90;5.78;;;10.20;99.90;;;;;;5034120;28;20095;-74
2022/06/16 02:35:11;;;;;;;12.00;5.10;;;10.10;99.90;;;;;;5033815;28;20513;-73
2022/06/16 02:37:52;;;;;;;10.00;5.28;;;10.00;99.90;;;;;;5033227;28;20050;-74
2022/06/16 02:40:40;;;;;;;16.80;5.55;;;10.00;99.90;;;;;;5033584;28;20081;-74
2022/06/16 02:43:34;;;;;;;10.65;5.55;;;9.90;99.90;;;;;;5013473;28;20452;-73
2022/06/16 02:46:29;;;;;;;11.80;6.07;;;9.80;99.90;;;;;;5013591;28;20049;-75
2022/06/16 02:49:26;;;;;;;14.00;5.88;;;9.70;99.90;;;;;;5028967;28;20527;-74
2022/06/16 02:51:58;;;;;;;11.80;6.45;;;9.70;99.90;;;;;;5024186;28;20115;-73
2022/06/16 02:54:33;;;;;;;13.65;6.35;;;9.60;99.90;;;;;;5013568;28;20057;-74
2022/06/16 02:57:14;;;;;;;12.23;6.53;;;9.60;99.90;;;;;;5012878;28;20525;-74
2022/06/16 02:59:47;;;;;;;17.13;6.97;;;9.40;99.90;;;;;;5013294;28;20121;-74
2022/06/16 03:02:19;;;;;;;16.08;6.78;;;9.50;99.90;;;;;;5013759;28;20506;-74
2022/06/16 03:04:51;;;;;;;13.15;6.25;;;9.50;99.90;;;;;;5013275;28;20053;-74
2022/06/16 03:07:17;;;;;;;12.85;6.15;;;9.60;99.90;;;;;;5021340;28;20033;-74
2022/06/16 03:09:43;;;;;;;7.60;5.35;;;10.50;99.90;;;;;;5032775;28;20110;-75
2022/06/16 03:12:10;;;;;;;8.88;6.07;;;9.50;99.90;;;;;;5022012;28;20125;-74
2022/06/16 03:14:36;;;;;;;10.65;6.10;;;9.50;99.90;;;;;;5013291;28;20070;-74
2022/06/16 03:17:03;;;;;;;10.68;6.03;;;9.50;99.90;;;;;;5018670;28;20461;-74
2022/06/16 03:19:29;;;;;;;12.77;6.85;;;9.50;99.90;;;;;;5033032;28;20134;-74
2022/06/16 03:21:56;;;;;;;12.77;6.78;;;9.50;99.90;;;;;;5024310;28;20118;-75
2022/06/16 03:24:21;;;;;;;15.68;7.68;;;9.50;99.90;;;;;;5013024;28;20041;-74
2022/06/16 03:26:47;;;;;;;17.55;6.82;;;9.50;99.90;;;;;;5013131;28;20049;-73
2022/06/16 03:29:14;;;;;;;11.75;6.00;;;9.50;99.90;;;;;;5013431;28;20045;-75
2022/06/16 03:31:40;;;;;;;12.48;6.90;;;9.50;99.90;;;;;;5018885;28;20095;-74
2022/06/16 03:34:06;;;;;;;16.88;7.35;;;9.50;99.90;;;;;;5032726;28;20037;-75
2022/06/16 03:36:32;;;;;;;19.55;7.93;;;9.50;99.90;;;;;;5032379;28;20038;-75
2022/06/16 03:38:58;;;;;;;14.65;7.03;;;9.60;99.90;;;;;;5032664;28;20428;-75
2022/06/16 03:41:24;;;;;;;12.60;7.40;;;9.60;99.90;;;;;;5031899;28;20045;-75
2022/06/16 03:43:49;;;;;;;13.88;7.10;;;9.60;99.90;;;;;;5033026;28;20118;-75
2022/06/16 03:46:16;;;;;;;15.43;6.72;;;9.70;99.90;;;;;;5032642;28;20037;-73
2022/06/16 03:48:42;;;;;;;16.80;6.88;;;9.80;99.90;;;;;;5014573;28;20050;-72
2022/06/16 03:51:09;;;;;;;14.15;7.35;;;9.90;99.90;;;;;;5012740;28;20483;-75
2022/06/16 03:53:35;;;;;;;14.95;7.20;;;10.00;99.90;;;;;;5032665;28;20051;-75
2022/06/16 03:56:01;;;;;;;14.00;6.90;;;10.10;99.90;;;;;;5032790;28;20077;-75
2022/06/16 03:58:27;;;;;;;12.70;7.13;;;10.20;99.90;;;;;;5031121;28;20474;-75
2022/06/16 04:00:53;;;;;;;16.73;6.63;;;10.30;99.90;;;;;;5032533;28;20073;-75
2022/06/16 04:06:03;;;;;;;13.43;6.35;;;10.30;99.90;;;;;;5012735;28;20513;-75
2022/06/16 04:08:29;;;;;;;12.50;6.07;;;10.30;99.90;;;;;;5013115;28;20041;-73
2022/06/16 04:10:55;;;;;;;11.60;5.63;;;10.30;99.90;;;;;;5012797;28;20046;-73
2022/06/16 04:13:20;;;;;;;9.80;5.95;;;10.30;99.90;;;;;;5030351;28;20060;-73
2022/06/16 04:15:46;;;;;;;10.90;5.88;;;10.30;99.90;;;;;;5031804;28;20045;-73
2022/06/16 04:18:12;;;;;;;10.13;5.38;;;10.40;99.90;;;;;;5031575;28;20052;-73
2022/06/16 04:20:38;;;;;;;9.25;5.88;;;10.50;99.90;;;;;;5035038;28;20128;-73
2022/06/16 04:23:10;;;;;;;9.32;4.45;;;10.70;99.90;;;;;;5035528;28;20046;-73
2022/06/16 04:25:35;;;;;;;11.00;4.68;;;10.80;99.90;;;;;;5035847;28;20095;-73
2022/06/16 04:28:04;;;;;;;9.40;5.28;;;11.00;99.90;;;;;;5026359;28;20486;-73
2022/06/16 04:30:29;;;;;;;10.95;5.43;;;11.20;99.90;;;;;;5015868;28;20087;-74
2022/06/16 04:32:57;;;;;;;10.05;5.20;;;11.50;99.90;;;;;;5030370;28;20505;-73
2022/06/16 04:35:23;;;;;;;10.13;4.63;;;11.70;99.90;;;;;;5035316;28;20050;-73
2022/06/16 04:37:49;;;;;;;9.48;4.15;;;12.00;99.90;;;;;;5028455;28;20145;-73
2022/06/16 04:40:15;;;;;;;6.93;3.55;;;12.40;99.90;;;;;;5015556;28;20068;-73
2022/06/16 04:42:40;;;;;;;6.45;4.13;;;12.60;99.90;;;;;;5027551;28;20478;-73
2022/06/16 04:45:06;;;;;;;7.53;3.70;;;12.90;99.90;;;;;;5034733;28;20087;-73
2022/06/16 04:47:32;;;;;;;11.48;4.95;;;13.10;99.90;;;;;;5034484;28;20049;-73
2022/06/16 04:49:57;;;;;;;9.20;5.10;;;13.40;99.90;;;;;;5034551;28;20044;-73
2022/06/16 04:52:23;;;;;;;10.68;4.75;;;13.70;99.90;;;;;;5024239;28;20104;-74
2022/06/16 04:54:49;;;;;;;9.43;4.95;;;13.90;99.90;;;;;;5014816;28;20505;-73
2022/06/16 04:57:15;;;;;;;10.45;4.10;;;14.40;99.90;;;;;;5014605;28;20096;-73
2022/06/16 04:59:42;;;;;;;9.52;4.28;;;15.10;99.90;;;;;;5014637;28;20425;-74
2022/06/16 05:02:08;;;;;;;10.05;3.92;;;16.20;99.90;;;;;;5034599;28;20087;-74
2022/06/16 05:04:35;;;;;;;8.55;3.65;;;17.40;99.90;;;;;;5034384;28;20125;-73
2022/06/16 05:07:01;;;;;;;15.13;3.55;;;18.50;99.90;;;;;;5034415;28;20050;-74
2022/06/16 05:09:28;;;;;;;4.78;2.88;;;19.30;99.90;;;;;;5032996;28;20033;-74
2022/06/16 05:11:54;;;;;;;31.60;4.22;;;20.30;99.90;;;;;;5014681;28;20383;-74
2022/06/16 05:14:20;;;;;;;10.40;2.95;;;20.40;97.30;;;;;;5013487;28;20038;-75
2022/06/16 05:16:47;;;;;;;5.63;2.55;;;21.00;92.20;;;;;;5011449;28;20046;-75
2022/06/16 05:19:13;;;;;;;6.70;2.47;;;21.00;73.00;;;;;;5026444;28;20045;-74
2022/06/16 05:21:39;;;;;;;6.43;2.22;;;20.90;74.60;;;;;;5031424;28;20064;-75
2022/06/16 05:24:04;;;;;;;6.38;2.78;;;20.20;69.20;;;;;;5031212;28;20046;-75
2022/06/16 05:26:30;;;;;;;7.07;2.38;;;19.40;71.40;;;;;;5031132;28;20160;-74
2022/06/16 05:28:56;;;;;;;7.22;2.88;;;18.70;79.50;;;;;;5018197;28;20038;-75
2022/06/16 05:31:23;;;;;;;8.93;3.55;;;18.40;86.50;;;;;;5010657;28;20058;-74
2022/06/16 05:33:49;;;;;;;5.50;2.50;;;18.20;90.60;;;;;;5012359;28;20060;-74
2022/06/16 05:36:16;;;;;;;5.30;2.20;;;18.10;91.50;;;;;;5012658;28;20054;-74
2022/06/16 05:38:42;;;;;;;6.50;2.33;;;18.10;91.10;;;;;;5032198;28;20045;-74
2022/06/16 05:41:14;;;;;;;6.63;2.15;;;17.90;90.70;;;;;;5032294;28;20523;-74
2022/06/16 05:43:40;;;;;;;9.50;2.30;;;18.00;90.20;;;;;;5033358;28;20289;-75
2022/06/16 05:46:18;;;;;;;6.05;2.05;;;18.40;89.90;;;;;;5033123;28;20103;-74
2022/06/16 05:48:46;;;;;;;7.47;2.15;;;18.90;81.30;;;;;;5033345;28;20049;-74
2022/06/16 05:51:14;;;;;;;8.45;2.33;;;19.30;75.80;;;;;;5024678;28;20544;-74
2022/06/16 05:53:40;;;;;;;5.03;2.15;;;19.80;67.80;;;;;;5014194;28;20038;-74
2022/06/16 05:56:07;;;;;;;4.32;1.92;;;20.20;61.40;;;;;;5013782;28;20045;-75
2022/06/16 05:58:33;;;;;;;30.27;3.42;;;20.30;52.10;;;;;;5013301;28;20505;-74
2022/06/16 06:00:58;;;;;;;7.93;1.98;;;20.10;54.20;;;;;;5013497;28;20049;-74
2022/06/16 06:03:24;;;;;;;10.27;2.10;;;20.00;51.00;;;;;;5013856;28;20050;-74
2022/06/16 06:05:50;;;;;;;8.32;2.08;;;19.70;53.20;;;;;;5013718;28;20042;-74
2022/06/16 06:16:35;;;;;;;4.88;1.40;;;20.20;54.80;;;;;;5029887;28;20049;-74
2022/06/16 06:22:02;;;;;;;4.55;1.40;;;22.00;31.00;;;;;;5033158;28;20049;-75
2022/06/16 06:24:34;;;;;;;5.00;1.48;;;22.70;22.50;;;;;;5033263;28;20041;-74
2022/06/16 06:27:03;;;;;;;4.68;1.45;;;22.60;14.40;;;;;;5033371;28;20049;-75
2022/06/16 06:29:28;;;;;;;4.18;1.63;;;23.00;14.30;;;;;;5029497;28;20076;-75
2022/06/16 06:31:54;;;;;;;4.82;1.73;;;23.40;5.60;;;;;;5029767;28;20561;-75
2022/06/16 06:34:20;;;;;;;7.03;1.92;;;23.80;1.00;;;;;;5029719;28;20440;-75
2022/06/16 06:36:45;;;;;;;9.85;2.28;;;24.40;1.00;;;;;;5030014;28;20119;-75
2022/06/16 06:39:12;;;;;;;7.20;1.73;;;24.30;1.00;;;;;;5029720;28;20041;-75
2022/06/16 06:41:39;;;;;;;9.18;2.25;;;24.50;1.00;;;;;;5029334;28;20045;-75
2022/06/16 06:44:04;;;;;;;4.80;1.33;;;24.70;1.00;;;;;;5027982;28;20068;-75
2022/06/16 06:46:30;;;;;;;4.97;1.17;;;24.80;1.00;;;;;;5029506;28;20108;-75
2022/06/16 06:48:55;;;;;;;7.65;1.80;;;25.10;1.00;;;;;;5029412;28;20045;-75
2022/06/16 06:51:21;;;;;;;4.50;1.40;;;24.90;1.00;;;;;;5024884;28;20041;-75
2022/06/16 06:53:47;;;;;;;8.45;1.65;;;25.10;1.00;;;;;;5019463;28;20045;-75
2022/06/16 06:56:13;;;;;;;8.82;1.73;;;25.00;1.00;;;;;;5018174;28;20049;-74
2022/06/16 06:58:40;;;;;;;6.50;1.73;;;25.10;1.00;;;;;;5018100;28;20061;-75
2022/06/16 07:01:06;;;;;;;7.18;2.08;;;24.60;1.00;;;;;;5016342;28;20099;-75
2022/06/16 07:03:33;;;;;;;6.80;1.83;;;25.10;1.00;;;;;;5009530;28;20054;-74
2022/06/16 07:06:03;;;;;;;3.85;1.00;;;25.40;1.00;;;;;;5009595;28;20117;-75
2022/06/16 07:08:30;;;;;;;3.95;1.30;;;26.10;1.00;;;;;;5008337;28;20073;-75
2022/06/16 07:10:56;;;;;;;4.50;1.13;;;26.70;1.00;;;;;;5009623;28;20041;-75
2022/06/16 07:13:24;;;;;;;6.95;1.08;;;26.10;1.00;;;;;;5009542;28;20053;-75
2022/06/16 07:15:50;;;;;;;3.45;0.90;;;25.80;1.00;;;;;;5009427;28;20050;-74
2022/06/16 07:18:15;;;;;;;7.60;1.30;;;26.50;1.00;;;;;;5009457;28;20041;-75
2022/06/16 07:20:41;;;;;;;3.92;1.23;;;26.40;1.00;;;;;;5017324;28;20111;-74
2022/06/16 07:23:07;;;;;;;5.00;1.40;;;26.10;1.00;;;;;;5019726;28;20124;-75
2022/06/16 07:25:32;;;;;;;4.10;1.40;;;26.10;1.00;;;;;;5019383;28;20478;-75
2022/06/16 07:27:58;;;;;;;3.95;0.95;;;26.50;1.00;;;;;;5018464;28;20045;-75
2022/06/16 07:30:24;;;;;;;3.45;1.10;;;26.00;1.00;;;;;;5019771;28;20513;-75
2022/06/16 07:32:51;;;;;;;7.18;1.80;;;26.40;1.00;;;;;;5018586;28;20052;-74
2022/06/16 07:35:19;;;;;;;5.75;1.23;;;26.60;1.00;;;;;;5013039;28;20045;-74
2022/06/16 07:37:45;;;;;;;4.97;1.33;;;27.10;1.00;;;;;;5009451;28;20041;-75
2022/06/16 07:40:12;;;;;;;8.05;1.35;;;27.00;1.00;;;;;;5011658;28;20171;-75
2022/06/16 07:42:38;;;;;;;4.95;1.25;;;27.40;1.00;;;;;;5028884;28;20509;-75
2022/06/16 07:45:04;;;;;;;6.35;1.42;;;27.30;1.00;;;;;;5028815;28;20099;-75
2022/06/16 07:47:30;;;;;;;4.57;1.27;;;27.90;1.00;;;;;;5029209;28;20052;-75
2022/06/16 07:49:56;;;;;;;3.08;1.10;;;28.80;1.00;;;;;;5028676;28;20033;-75
2022/06/16 07:52:21;;;;;;;3.35;1.20;;;28.80;1.00;;;;;;5029129;28;20128;-74
2022/06/16 07:54:49;;;;;;;5.90;1.55;;;28.90;1.00;;;;;;5030186;28;20041;-75
2022/06/16 07:57:16;;;;;;;6.32;1.48;;;29.10;1.00;;;;;;5032387;28;20061;-75
2022/06/16 07:59:42;;;;;;;3.95;1.00;;;29.50;1.00;;;;;;5031160;28;20493;-75
2022/06/16 08:02:09;;;;;;;2.63;0.80;;;29.70;1.00;;;;;;5032898;28;20056;-75
2022/06/16 08:04:34;;;;;;;2.83;0.70;;;29.40;1.00;;;;;;5032554;28;20038;-74
2022/06/16 08:07:03;;;;;;;3.95;1.10;;;29.80;1.00;;;;;;5032815;28;20041;-75
2022/06/16 08:09:33;;;;;;;5.97;1.30;;;28.90;1.00;;;;;;5032521;28;20482;-75
2022/06/16 08:12:09;;;;;;;7.03;1.20;;;27.50;1.00;;;;;;5032784;28;20207;-75
2022/06/16 08:14:38;;;;;;;5.07;1.40;;;27.60;1.00;;;;;;5032836;28;20132;-75
2022/06/16 08:17:08;;;;;;;3.38;1.23;;;27.90;1.00;;;;;;5032528;28;20096;-75
2022/06/16 08:19:34;;;;;;;5.43;1.27;;;27.10;1.00;;;;;;5032229;28;20475;-75
2022/06/16 08:21:59;;;;;;;5.80;1.00;;;27.30;1.00;;;;;;5032914;28;20116;-75
2022/06/16 08:24:25;;;;;;;4.60;1.10;;;27.70;1.00;;;;;;5035347;28;20111;-75
2022/06/16 08:26:51;;;;;;;5.57;1.30;;;27.70;1.00;;;;;;5033907;28;20041;-75
2022/06/16 08:29:18;;;;;;;4.63;1.20;;;28.10;1.00;;;;;;5033660;28;20116;-75
2022/06/16 08:31:44;;;;;;;3.40;1.35;;;28.00;1.00;;;;;;5035219;28;20045;-75
2022/06/16 08:34:10;;;;;;;7.88;1.30;;;26.80;1.00;;;;;;5035215;28;20497;-75
2022/06/16 08:36:36;;;;;;;3.88;1.25;;;27.00;1.00;;;;;;5035078;28;20041;-75
2022/06/16 08:39:04;;;;;;;4.50;1.38;;;27.30;1.00;;;;;;5034972;28;20397;-75
2022/06/16 08:42:00;;;;;;;6.05;1.20;;;27.40;1.00;;;;;;5034918;28;20405;-74
2022/06/16 08:44:44;;;;;;;4.70;1.50;;;27.80;1.00;;;;;;5030711;28;20053;-74
2022/06/16 08:47:25;;;;;;;4.00;1.10;;;27.60;1.00;;;;;;5034989;28;20084;-74
2022/06/16 08:50:23;;;;;;;4.55;1.25;;;27.40;1.00;;;;;;5034574;28;20494;-74
2022/06/16 08:53:06;;;;;;;4.18;1.33;;;27.00;1.00;;;;;;5034913;28;20073;-74
2022/06/16 08:55:40;;;;;;;4.93;1.50;;;27.10;1.00;;;;;;5034766;28;20072;-74
2022/06/16 08:58:24;;;;;;;3.58;1.50;;;27.00;1.00;;;;;;5034725;28;20053;-74
2022/06/16 09:00:55;;;;;;;6.25;1.95;;;27.40;1.00;;;;;;5034727;28;20034;-74
2022/06/16 09:03:46;;;;;;;5.28;1.55;;;27.30;1.00;;;;;;5034525;28;20354;-74
2022/06/16 09:06:37;;;;;;;6.63;1.58;;;27.10;1.00;;;;;;5032783;28;20494;-74
2022/06/16 09:12:21;;;;;;;5.53;2.00;;;27.40;1.00;;;;;;5034452;28;20091;-74
2022/06/16 09:15:20;;;;;;;3.22;1.52;;;27.10;1.00;;;;;;5034126;28;20512;-74
2022/06/16 09:18:04;;;;;;;5.60;1.80;;;27.20;1.00;;;;;;5025322;28;20136;-74
2022/06/16 09:20:42;;;;;;;6.38;1.58;;;27.40;1.00;;;;;;5034121;28;20081;-74
2022/06/16 09:23:18;;;;;;;6.57;2.00;;;27.30;1.00;;;;;;5034207;28;20785;-73
2022/06/16 09:26:16;;;;;;;7.32;2.55;;;27.00;1.00;;;;;;5034308;28;20037;-74
2022/06/16 09:29:10;;;;;;;4.55;2.03;;;27.70;1.00;;;;;;5034280;28;20147;-74
2022/06/16 09:31:40;;;;;;;7.38;2.10;;;27.50;1.00;;;;;;5034342;28;20500;-74
2022/06/16 09:34:20;;;;;;;6.57;1.80;;;27.60;1.00;;;;;;5034384;28;20045;-74
2022/06/16 09:36:55;;;;;;;3.97;1.88;;;27.70;1.00;;;;;;5034545;28;20045;-74
2022/06/16 09:39:26;;;;;;;6.43;2.28;;;27.00;1.00;;;;;;5033952;28;20493;-75
2022/06/16 09:45:01;;;;;;;6.55;1.80;;;26.60;1.00;;;;;;5034037;28;20053;-74
2022/06/16 09:47:37;;;;;;;7.13;1.93;;;25.70;1.00;;;;;;5033778;28;20128;-74
2022/06/16 09:50:26;;;;;;;7.88;2.55;;;25.70;1.00;;;;;;5034242;28;20300;-74
2022/06/16 09:53:13;;;;;;;6.80;2.42;;;25.60;1.00;;;;;;5033985;28;20050;-74
2022/06/16 09:55:46;;;;;;;4.97;2.13;;;26.00;1.00;;;;;;5033702;28;20269;-74
2022/06/16 09:58:47;;;;;;;6.32;2.20;;;25.70;1.00;;;;;;5033820;28;20053;-74
2022/06/16 10:01:17;;;;;;;9.52;2.13;;;25.40;1.00;;;;;;5021831;28;20077;-74
2022/06/16 10:03:49;;;;;;;6.78;2.75;;;25.40;1.00;;;;;;5033629;28;20069;-75
2022/06/16 10:06:20;;;;;;;4.43;2.88;;;25.20;1.00;;;;;;5033348;28;20045;-74
2022/06/16 10:08:53;;;;;;;5.60;2.38;;;25.20;1.00;;;;;;5032213;28;20052;-74
2022/06/16 10:11:42;;;;;;;6.90;2.75;;;25.30;1.00;;;;;;5033531;28;20045;-74
2022/06/16 10:14:30;;;;;;;7.38;2.80;;;25.40;1.00;;;;;;5022965;28;20521;-75
2022/06/16 10:17:00;;;;;;;8.27;2.65;;;25.70;1.00;;;;;;5032495;28;20112;-75
2022/06/16 10:19:29;;;;;;;18.55;2.97;;;25.70;1.00;;;;;;5032788;28;20581;-74
2022/06/16 10:21:55;;;;;;;7.00;2.70;;;25.80;1.00;;;;;;5033380;28;20076;-75
2022/06/16 10:24:27;;;;;;;4.30;2.15;;;25.70;1.00;;;;;;5033061;28;20056;-74
2022/06/16 10:26:57;;;;;;;7.00;2.30;;;25.90;1.00;;;;;;5031825;28;20056;-75
2022/06/16 10:29:30;;;;;;;4.22;1.63;;;25.80;1.00;;;;;;5033337;28;20049;-75
2022/06/16 10:31:58;;;;;;;10.27;2.25;;;26.30;1.00;;;;;;5033548;28;20057;-75
2022/06/16 10:34:44;;;;;;;7.00;2.25;;;26.20;1.00;;;;;;5033672;28;20041;-76
2022/06/16 10:39:14;;;;;;;;;;;26.20;1.00;;;;;;5131146;27;20386;-76
2022/06/16 10:41:59;;;;;;;4.78;2.30;;;26.00;1.00;;;;;;5130564;27;19923;-75
2022/06/16 10:44:28;;;;;;;7.30;2.58;;;26.10;1.00;;;;;;5130634;27;20039;-76
2022/06/16 10:47:00;;;;;;;5.22;1.92;;;25.90;1.00;;;;;;5130956;27;20119;-75
2022/06/16 10:49:32;;;;;;;5.22;2.00;;;26.00;1.00;;;;;;5130812;27;20070;-75
2022/06/16 10:52:04;;;;;;;8.35;3.05;;;26.00;1.00;;;;;;5130997;27;20039;-76
2022/06/16 10:54:54;;;;;;;4.45;2.13;;;26.10;1.00;;;;;;5130513;27;20100;-75
2022/06/16 10:57:27;;;;;;;8.32;2.28;;;26.00;1.00;;;;;;5130529;27;20393;-76
2022/06/16 11:00:03;;;;;;;5.35;2.40;;;26.20;1.00;;;;;;5130496;27;20104;-75
2022/06/16 11:02:33;;;;;;;6.70;2.47;;;26.30;1.00;;;;;;5130579;27;20086;-75
2022/06/16 11:05:17;;;;;;;4.20;1.98;;;26.30;1.00;;;;;;5130127;27;20553;-75
2022/06/16 11:07:44;;;;;;;7.32;2.15;;;26.70;1.00;;;;;;5130711;27;20039;-75
2022/06/16 11:10:15;;;;;;;6.97;2.88;;;26.80;1.00;;;;;;5130503;27;20040;-75
2022/06/16 11:12:46;;;;;;;3.55;1.70;;;26.90;1.00;;;;;;5130519;27;20053;-75
2022/06/16 11:15:23;;;;;;;5.68;2.28;;;27.50;1.00;;;;;;5130203;27;20086;-74
2022/06/16 11:18:00;;;;;;;5.20;1.85;;;27.50;1.00;;;;;;5130072;27;20036;-75
2022/06/16 11:20:53;;;;;;;6.05;2.33;;;27.90;1.00;;;;;;5130250;27;20454;-75
2022/06/16 11:23:22;;;;;;;5.85;1.80;;;28.00;1.00;;;;;;5127848;27;20077;-75
2022/06/16 11:26:09;;;;;;;4.15;1.95;;;27.80;1.00;;;;;;5129971;27;20447;-75
2022/06/16 11:28:45;;;;;;;4.25;1.98;;;28.50;1.00;;;;;;5129896;27;20050;-75
2022/06/16 11:31:24;;;;;;;4.25;2.28;;;29.50;1.00;;;;;;5130011;27;20050;-76
2022/06/16 11:34:21;;;;;;;9.02;2.92;;;30.20;1.00;;;;;;5129968;27;20039;-75
2022/06/16 11:37:07;;;;;;;5.00;1.70;;;30.20;1.00;;;;;;5128760;28;20062;-76
2022/06/16 11:39:39;;;;;;;;;;;30.80;1.00;;;;;;5130416;28;20100;-75
2022/06/16 11:42:25;;;;;;;6.40;2.05;;;31.00;1.00;;;;;;5129877;27;19919;-75
2022/06/16 11:45:09;;;;;;;6.18;2.05;;;31.40;1.00;;;;;;5129573;27;20047;-75
2022/06/16 11:48:06;;;;;;;4.88;1.67;;;30.50;1.00;;;;;;5129842;27;20051;-75
2022/06/16 11:50:55;;;;;;;15.05;2.20;;;31.10;1.00;;;;;;5115256;28;20413;-75
2022/06/16 11:53:49;;;;;;;6.95;1.90;;;30.90;1.00;;;;;;5115791;28;20047;-76
2022/06/16 11:56:27;;;;;;;4.93;1.90;;;31.30;1.00;;;;;;5115682;28;20048;-75
2022/06/16 11:59:26;;;;;;;6.07;2.00;;;30.60;1.00;;;;;;5115583;28;20382;-76
2022/06/16 12:02:04;;;;;;;3.80;1.83;;;30.20;1.00;;;;;;5115873;28;20047;-75
2022/06/16 12:04:57;;;;;;;5.38;2.20;;;29.70;1.00;;;;;;5115555;28;20451;-75
2022/06/16 12:07:43;;;;;;;7.45;1.75;;;28.60;1.00;;;;;;5115479;28;20378;-75
2022/06/16 12:10:39;;;;;;;9.45;2.55;;;28.10;1.00;;;;;;5115804;28;20043;-75
2022/06/16 12:13:18;;;;;;;;;;;27.20;1.00;;;;;;5115911;28;20144;-74
2022/06/16 12:15:49;;;;;;;9.40;2.05;;;26.50;1.00;;;;;;5115307;27;19919;-75
2022/06/16 12:18:39;;;;;;;8.30;2.03;;;26.10;1.00;;;;;;5115274;28;20040;-75
2022/06/16 12:21:15;;;;;;;5.80;1.80;;;26.50;1.00;;;;;;5115373;28;20075;-75
2022/06/16 12:24:02;;;;;;;4.80;2.00;;;28.50;1.00;;;;;;5115410;28;20047;-75
2022/06/16 12:26:38;;;;;;;9.82;2.33;;;30.00;1.00;;;;;;5115240;28;20134;-76
2022/06/16 12:29:36;;;;;;;5.75;1.95;;;30.30;1.00;;;;;;5115390;28;20078;-75
2022/06/16 12:32:39;;;;;;;4.88;2.20;;;29.30;1.00;;;;;;5080872;28;20051;-75
2022/06/16 12:35:43;;;;;;;7.60;2.42;;;29.80;1.00;;;;;;5115193;28;20102;-76
2022/06/16 12:38:26;;;;;;;4.65;1.73;;;30.40;1.00;;;;;;5115233;28;20135;-75
2022/06/16 12:41:15;;;;;;;4.25;1.83;;;30.00;1.00;;;;;;5114865;28;20358;-75
2022/06/16 12:43:50;;;;;;;4.05;2.00;;;28.70;1.00;;;;;;5115023;28;20390;-76
2022/06/16 12:46:22;;;;;;;20.55;3.03;;;27.60;1.00;;;;;;5114886;28;20150;-75
2022/06/16 12:49:21;;;;;;;8.38;2.38;;;27.40;1.00;;;;;;5114911;28;20128;-75
2022/06/16 12:52:06;;;;;;;5.93;1.90;;;26.80;1.00;;;;;;5109491;28;20148;-75
2022/06/16 12:54:42;;;;;;;8.80;2.20;;;27.30;1.00;;;;;;5114973;28;20040;-76
2022/06/16 12:57:12;;;;;;;9.85;2.17;;;28.20;1.00;;;;;;5114599;28;20165;-75
2022/06/16 12:59:43;;;;;;;5.95;1.90;;;28.90;1.00;;;;;;5114342;27;20040;-75
2022/06/16 13:02:15;;;;;;;8.90;1.85;;;30.20;1.00;;;;;;5113571;28;20040;-75
2022/06/16 13:04:42;;;;;;;5.63;1.80;;;29.90;1.00;;;;;;5114598;28;20058;-75
2022/06/16 13:07:18;;;;;;;5.35;2.00;;;29.20;1.00;;;;;;5114466;28;20158;-75
2022/06/16 13:09:44;;;;;;;5.60;2.20;;;28.20;1.00;;;;;;5114392;28;20123;-75
2022/06/16 13:12:17;;;;;;;3.72;1.60;;;27.60;1.00;;;;;;5114282;28;20111;-75
2022/06/16 13:15:06;;;;;;;7.13;1.75;;;27.30;1.00;;;;;;5114368;27;20043;-75
2022/06/16 13:17:38;;;;;;;5.97;2.22;;;26.70;1.00;;;;;;5114284;28;20039;-75
2022/06/16 13:20:11;;;;;;;7.32;2.45;;;26.50;1.00;;;;;;5114068;28;20088;-75
2022/06/16 13:22:41;;;;;;;5.10;1.98;;;27.50;1.00;;;;;;5114046;28;20044;-76
2022/06/16 13:25:11;;;;;;;5.80;2.20;;;28.10;1.00;;;;;;5114233;28;20047;-75
2022/06/16 13:27:37;;;;;;;5.65;1.88;;;28.20;1.00;;;;;;5114197;28;20047;-76
2022/06/16 13:30:06;;;;;;;3.65;1.60;;;28.50;1.00;;;;;;5113927;28;20036;-76
2022/06/16 13:32:50;;;;;;;5.57;1.77;;;28.70;1.00;;;;;;5113855;28;20036;-76
2022/06/16 13:35:15;;;;;;;6.07;1.55;;;28.40;1.00;;;;;;5113465;28;20413;-75
2022/06/16 13:37:50;;;;;;;5.80;1.67;;;27.60;1.00;;;;;;5113813;28;20059;-75
2022/06/16 13:40:26;;;;;;;4.57;1.95;;;27.60;1.00;;;;;;5113627;28;20043;-77
2022/06/16 13:42:52;;;;;;;7.90;1.98;;;28.90;1.00;;;;;;5114187;28;20166;-78
2022/06/16 13:45:23;;;;;;;3.42;1.42;;;29.10;1.00;;;;;;5114246;28;20048;-78
2022/06/16 13:48:13;;;;;;;4.50;1.80;;;29.80;1.00;;;;;;5113928;28;20447;-79